.
WxDataArchive / Data Records for 2007-10-14
2007-10-13 October 2007 2007-10-15

Data Records for Sunday, 14 October 2007

Time	Temp	Chill	HIndex	Humid	Dewpt	 Wind 	HiWind	WindDir	Rain 	Barom 
-----	----	-----	------	-----	-----	------	------	-------	-----	----- 
00:00	51.9	51.9	51.9	81	46.3	0	0	---	0.00	30.038 
00:05	52.0	52.0	52.0	81	46.4	0	0	---	0.00	30.038 
00:10	52.0	52.0	52.0	81	46.4	0	0	---	0.00	30.038 
00:15	52.0	52.0	52.0	81	46.4	0	0	---	0.00	30.039 
00:20	52.0	52.0	52.0	81	46.4	0	0	---	0.00	30.040 
00:25	52.0	52.0	52.0	81	46.4	0	0	---	0.00	30.038 
00:30	52.2	52.2	52.2	82	46.9	0	0	---	0.00	30.040 
00:35	52.2	52.2	52.2	82	46.9	0	0	---	0.00	30.042 
00:40	52.2	52.2	52.2	82	46.9	0	0	---	0.00	30.043 
00:45	52.2	52.2	52.2	82	46.9	0	0	---	0.00	30.045 
00:50	52.2	52.2	52.2	82	46.9	0	0	---	0.00	30.044 
00:55	52.2	52.2	52.2	82	46.9	0	0	---	0.00	30.045 
01:00	52.2	52.2	52.2	83	47.2	0	0	---	0.00	30.048 
01:05	52.2	52.2	52.2	83	47.2	0	0	---	0.00	30.047 
01:10	52.2	52.2	52.2	84	47.5	0	0	---	0.00	30.047 
01:15	52.2	52.2	52.2	84	47.5	0	0	---	0.00	30.047 
01:20	52.2	52.2	52.2	83	47.2	0	0	---	0.00	30.049 
01:25	52.3	52.3	52.3	83	47.3	0	0	---	0.00	30.049 
01:30	52.3	52.3	52.3	83	47.3	0	0	---	0.00	30.049 
01:35	52.3	52.3	52.3	82	47.0	0	0	---	0.00	30.049 
01:40	52.5	52.5	52.5	82	47.2	0	0	---	0.00	30.047 
01:45	52.5	52.5	52.5	82	47.2	0	0	---	0.00	30.046 
01:50	52.6	52.6	52.6	82	47.3	0	0	---	0.00	30.047 
01:55	52.6	52.6	52.6	82	47.3	0	0	---	0.00	30.049 
02:00	52.6	52.6	52.6	82	47.3	0	0	---	0.00	30.051 
02:05	52.5	52.5	52.5	81	46.8	0	0	---	0.00	30.052 
02:10	52.5	52.5	52.5	82	47.2	0	0	---	0.00	30.052 
02:15	52.5	52.5	52.5	81	46.8	0	0	---	0.00	30.050 
02:20	52.5	52.5	52.5	81	46.8	0	0	---	0.00	30.051 
02:25	52.5	52.5	52.5	81	46.8	0	0	---	0.00	30.051 
02:30	52.5	52.5	52.5	81	46.8	0	0	---	0.00	30.053 
02:35	52.5	52.5	52.5	82	47.2	0	0	---	0.00	30.055 
02:40	52.5	52.5	52.5	81	46.8	0	1	292	0.00	30.056 
02:45	52.5	52.5	52.5	80	46.5	0	1	292	0.00	30.054 
02:50	52.5	52.5	52.5	79	46.2	0	2	292	0.00	30.053 
02:55	52.5	52.5	52.5	79	46.2	0	2	315	0.00	30.050 
03:00	52.5	52.5	52.5	79	46.2	0	1	315	0.00	30.053 
03:05	52.5	52.5	52.5	80	46.5	0	0	---	0.00	30.054 
03:10	52.3	52.3	52.3	79	46.0	0	1	315	0.00	30.055 
03:15	52.3	52.3	52.3	79	46.0	0	0	---	0.00	30.053 
03:20	52.3	52.3	52.3	80	46.3	0	0	---	0.00	30.058 
03:25	52.3	52.3	52.3	79	46.0	0	0	---	0.00	30.057 
03:30	52.3	52.3	52.3	80	46.3	0	0	---	0.00	30.056 
03:35	52.3	52.3	52.3	80	46.3	0	0	---	0.00	30.057 
03:40	52.2	52.2	52.2	79	45.9	0	0	---	0.00	30.061 
03:45	52.2	52.2	52.2	79	45.9	0	0	---	0.00	30.063 
03:50	52.2	52.2	52.2	79	45.9	0	1	315	0.00	30.061 
03:55	52.3	52.3	52.3	79	46.0	0	0	---	0.00	30.063 
04:00	52.3	52.3	52.3	79	46.0	0	0	---	0.00	30.064 
04:05	52.2	52.2	52.2	79	45.9	0	0	---	0.00	30.065 
04:10	52.2	52.2	52.2	79	45.9	0	1	315	0.00	30.065 
04:15	52.2	52.2	52.2	80	46.2	0	0	---	0.00	30.066 
04:20	52.2	52.2	52.2	80	46.2	0	0	---	0.00	30.068 
04:25	52.2	52.2	52.2	79	45.9	0	1	315	0.00	30.068 
04:30	52.2	52.2	52.2	79	45.9	0	0	---	0.00	30.074 
04:35	52.2	52.2	52.2	79	45.9	0	0	---	0.00	30.074 
04:40	52.2	52.2	52.2	79	45.9	0	0	---	0.00	30.079 
04:45	52.2	52.2	52.2	79	45.9	0	0	---	0.00	30.081 
04:50	52.2	52.2	52.2	80	46.2	0	0	---	0.00	30.080 
04:55	52.2	52.2	52.2	79	45.9	0	0	---	0.00	30.083 
05:00	52.2	52.2	52.2	78	45.5	0	0	---	0.00	30.082 
05:05	52.2	52.2	52.2	77	45.2	0	0	---	0.00	30.085 
05:10	52.2	52.2	52.2	77	45.2	0	0	---	0.00	30.085 
05:15	52.2	52.2	52.2	78	45.5	0	0	---	0.00	30.085 
05:20	52.2	52.2	52.2	78	45.5	0	1	315	0.00	30.086 
05:25	52.2	52.2	52.2	77	45.2	0	0	---	0.00	30.085 
05:30	52.2	52.2	52.2	77	45.2	0	0	---	0.00	30.086 
05:35	52.2	52.2	52.2	78	45.5	0	0	---	0.00	30.093 
05:40	52.2	52.2	52.2	78	45.5	0	0	---	0.00	30.097 
05:45	52.2	52.2	52.2	77	45.2	0	0	---	0.00	30.098 
05:50	52.2	52.2	52.2	77	45.2	0	0	---	0.00	30.097 
05:55	52.2	52.2	52.2	77	45.2	0	1	315	0.00	30.098 
06:00	52.2	52.2	52.2	77	45.2	0	0	---	0.00	30.099 
06:05	52.2	52.2	52.2	77	45.2	0	0	---	0.00	30.104 
06:10	52.2	52.2	52.2	78	45.5	0	0	---	0.00	30.109 
06:15	52.2	52.2	52.2	78	45.5	0	0	---	0.00	30.112 
06:20	52.0	52.0	52.0	78	45.4	0	0	---	0.00	30.109 
06:25	52.0	52.0	52.0	78	45.4	0	1	315	0.00	30.105 
06:30	52.0	52.0	52.0	78	45.4	0	1	315	0.00	30.101 
06:35	52.0	52.0	52.0	77	45.0	0	3	315	0.00	30.100 
06:40	52.0	52.0	52.0	77	45.0	1	3	22	0.00	30.097 
06:45	52.2	52.2	52.2	77	45.2	1	3	68	0.00	30.088 
06:50	52.0	52.0	52.0	77	45.0	2	4	90	0.00	30.079 
06:55	51.9	51.9	51.9	77	44.9	1	2	68	0.00	30.087 
07:00	51.9	51.9	51.9	77	44.9	1	4	68	0.00	30.086 
07:05	51.9	51.9	51.9	77	44.9	1	3	90	0.00	30.086 
07:10	51.7	51.7	51.7	77	44.7	0	2	90	0.00	30.088 
07:15	51.7	51.7	51.7	77	44.7	0	1	158	0.00	30.095 
07:20	51.9	51.9	51.9	76	44.6	0	1	158	0.00	30.096 
07:25	52.0	52.0	52.0	75	44.3	0	3	112	0.00	30.099 
07:30	52.2	52.2	52.2	76	44.9	0	2	112	0.00	30.100 
07:35	52.2	52.2	52.2	76	44.9	0	1	112	0.00	30.101 
07:40	52.2	52.2	52.2	76	44.9	0	1	112	0.00	30.102 
07:45	52.3	52.3	52.3	76	45.0	0	2	112	0.00	30.103 
07:50	52.3	52.3	52.3	76	45.0	0	2	112	0.00	30.102 
07:55	52.3	52.3	52.3	76	45.0	0	1	112	0.00	30.103 
08:00	52.5	52.5	52.5	75	44.8	1	3	112	0.00	30.104 
08:05	52.6	52.6	52.6	74	44.6	0	2	112	0.00	30.106 
08:10	52.8	52.8	52.8	74	44.7	1	4	112	0.00	30.109 
08:15	53.2	53.2	53.2	73	44.8	1	3	90	0.00	30.105 
08:20	53.3	53.3	53.3	73	44.9	2	4	90	0.00	30.108 
08:25	53.3	53.3	53.3	72	44.5	1	3	90	0.00	30.106 
08:30	53.5	53.5	53.5	73	45.1	1	2	90	0.00	30.111 
08:35	53.8	53.8	53.8	72	45.0	1	3	90	0.00	30.115 
08:40	54.1	54.1	54.1	70	44.5	2	4	90	0.00	30.116 
08:45	54.2	54.2	54.2	70	44.6	1	3	90	0.00	30.119 
08:50	54.2	54.2	54.2	71	45.0	1	4	90	0.00	30.125 
08:55	54.4	54.4	54.4	71	45.2	0	2	90	0.00	30.126 
09:00	54.5	54.5	54.5	70	44.9	2	4	112	0.00	30.121 
09:05	54.5	54.5	54.5	70	44.9	1	4	68	0.00	30.123 
09:10	54.7	54.7	54.7	70	45.1	1	4	68	0.00	30.118 
09:15	54.8	54.8	54.8	69	44.8	2	4	90	0.00	30.127 
09:20	55.0	55.0	55.0	69	45.0	2	5	90	0.00	30.126 
09:25	55.0	55.0	55.0	69	45.0	2	4	90	0.00	30.130 
09:30	55.0	55.0	55.0	69	45.0	2	4	90	0.00	30.132 
09:35	55.4	55.4	55.4	68	45.0	1	3	90	0.00	30.133 
09:40	55.9	55.9	55.9	67	45.1	1	3	90	0.00	30.131 
09:45	56.3	56.3	56.3	66	45.1	1	4	135	0.00	30.132 
09:50	56.6	56.6	56.6	65	45.0	1	3	112	0.00	30.131 
09:55	56.7	56.7	56.7	66	45.5	0	3	112	0.00	30.130 
10:00	56.9	56.9	56.9	65	45.3	2	5	90	0.00	30.126 
10:05	57.2	57.2	57.2	65	45.5	2	5	90	0.00	30.128 
10:10	57.2	57.2	57.2	65	45.5	2	6	90	0.00	30.126 
10:15	57.5	57.5	57.5	64	45.4	2	6	90	0.00	30.123 
10:20	57.8	57.8	57.8	63	45.3	1	3	112	0.00	30.121 
10:25	58.1	58.1	58.1	63	45.6	1	4	112	0.00	30.118 
10:30	58.4	58.4	58.4	62	45.4	2	5	90	0.00	30.121 
10:35	58.9	58.9	58.9	61	45.5	2	4	90	0.00	30.120 
10:40	59.5	59.5	59.5	59	45.2	2	3	90	0.00	30.119 
10:45	59.9	59.9	59.9	58	45.1	1	5	90	0.00	30.115 
10:50	59.8	59.8	59.8	58	45.0	2	7	90	0.00	30.117 
10:55	59.8	59.8	59.8	59	45.4	1	4	90	0.00	30.117 
11:00	59.9	59.9	59.9	59	45.5	1	2	90	0.00	30.117 
11:05	60.4	60.4	60.4	56	44.6	1	4	112	0.00	30.115 
11:10	60.9	60.9	60.9	57	45.6	1	3	135	0.00	30.113 
11:15	61.8	61.8	61.8	54	45.0	1	5	90	0.00	30.110 
11:20	62.0	62.0	62.0	54	45.2	1	5	90	0.00	30.111 
11:25	62.1	62.1	62.1	56	46.2	1	4	90	0.00	30.110 
11:30	62.4	62.4	62.4	51	44.0	1	2	112	0.00	30.113 
11:35	63.1	63.1	63.1	51	44.7	1	5	112	0.00	30.112 
11:40	63.5	63.5	63.5	50	44.5	1	3	112	0.00	30.112 
11:45	63.9	63.9	63.9	49	44.4	1	3	158	0.00	30.110 
11:50	64.0	64.0	64.0	50	45.0	1	4	90	0.00	30.111 
11:55	64.0	64.0	64.0	47	43.4	2	4	90	0.00	30.111 
12:00	64.2	64.2	64.2	49	44.6	1	3	112	0.00	30.112 
12:05	64.5	64.5	64.5	46	43.3	2	4	135	0.00	30.110 
12:10	64.8	64.8	64.8	47	44.1	1	3	90	0.00	30.110 
12:15	65.3	65.3	65.3	46	44.0	1	5	90	0.00	30.107 
12:20	65.3	65.3	65.3	45	43.4	2	5	112	0.00	30.105 
12:25	64.8	64.8	64.8	48	44.6	2	5	90	0.00	30.101 
12:30	64.5	64.5	64.5	47	43.8	1	3	248	0.00	30.106 
12:35	64.5	64.5	64.5	49	44.9	1	5	248	0.00	30.104 
12:40	64.5	64.5	64.5	48	44.4	0	3	0	0.00	30.096 
12:45	64.3	64.3	64.3	49	44.7	1	4	248	0.00	30.094 
12:50	64.3	64.3	64.3	47	43.6	2	4	112	0.00	30.093 
12:55	64.3	64.3	64.3	49	44.7	1	3	112	0.00	30.094 
13:00	64.3	64.3	64.3	49	44.7	0	2	202	0.00	30.094 
13:05	64.3	64.3	64.3	49	44.7	1	3	270	0.00	30.094 
13:10	64.3	64.3	64.3	49	44.7	0	3	270	0.00	30.094 
13:15	64.0	64.0	64.0	48	43.9	1	4	270	0.00	30.097 
13:20	64.0	64.0	64.0	47	43.4	1	2	112	0.00	30.093 
13:25	63.9	63.9	63.9	48	43.8	1	4	90	0.00	30.095 
13:30	63.7	63.7	63.7	49	44.2	0	1	90	0.00	30.104 
13:35	63.7	63.7	63.7	50	44.7	0	2	90	0.00	30.107 
13:40	63.7	63.7	63.7	50	44.7	0	2	90	0.00	30.101 
13:45	63.7	63.7	63.7	51	45.2	0	3	90	0.00	30.101 
13:50	63.7	63.7	63.7	51	45.2	0	2	90	0.00	30.096 
13:55	63.9	63.9	63.9	50	44.9	0	1	90	0.00	30.094 
14:00	63.9	63.9	63.9	50	44.9	0	2	90	0.00	30.093 
14:05	64.0	64.0	64.0	49	44.5	0	2	90	0.00	30.090 
14:10	64.0	64.0	64.0	50	45.0	0	1	90	0.00	30.087 
14:15	64.0	64.0	64.0	50	45.0	0	2	90	0.00	30.087 
14:20	64.0	64.0	64.0	50	45.0	0	1	90	0.00	30.086 
14:25	64.0	64.0	64.0	50	45.0	0	2	90	0.00	30.090 
14:30	64.0	64.0	64.0	49	44.5	0	1	90	0.00	30.092 
14:35	63.9	63.9	63.9	50	44.9	0	0	---	0.00	30.093 
14:40	63.9	63.9	63.9	51	45.4	0	0	---	0.00	30.093 
14:45	63.9	63.9	63.9	53	46.4	0	0	---	0.00	30.092 
14:50	63.7	63.7	63.7	50	44.7	0	1	90	0.00	30.090 
14:55	63.7	63.7	63.7	51	45.2	0	1	90	0.00	30.089 
15:00	63.7	63.7	63.7	51	45.2	0	1	90	0.00	30.090 
15:05	63.7	63.7	63.7	53	46.2	0	0	---	0.00	30.090 
15:10	63.9	63.9	63.9	52	45.9	0	1	90	0.00	30.086 
15:15	63.9	63.9	63.9	51	45.4	0	1	90	0.00	30.084 
15:20	63.9	63.9	63.9	50	44.9	0	1	90	0.00	30.085 
15:25	63.9	63.9	63.9	51	45.4	0	1	90	0.00	30.087 
15:30	63.9	63.9	63.9	51	45.4	0	1	90	0.00	30.086 
15:35	63.9	63.9	63.9	51	45.4	1	2	90	0.00	30.078 
15:40	63.9	63.9	63.9	50	44.9	1	2	90	0.00	30.078 
15:45	63.9	63.9	63.9	50	44.9	1	3	90	0.00	30.077 
15:50	64.0	64.0	64.0	51	45.5	0	1	90	0.00	30.078 
15:55	64.0	64.0	64.0	50	45.0	0	1	90	0.00	30.078 
16:00	64.2	64.2	64.2	51	45.7	0	2	90	0.00	30.077 
16:05	64.2	64.2	64.2	52	46.2	0	1	90	0.00	30.075 
16:10	64.2	64.2	64.2	51	45.7	0	2	90	0.00	30.071 
16:15	64.2	64.2	64.2	51	45.7	0	2	90	0.00	30.071 
16:20	64.0	64.0	64.0	51	45.5	1	2	90	0.00	30.069 
16:25	63.9	63.9	63.9	52	45.9	1	2	90	0.00	30.067 
16:30	63.9	63.9	63.9	51	45.4	1	5	90	0.00	30.063 
16:35	63.9	63.9	63.9	51	45.4	0	2	90	0.00	30.063 
16:40	63.7	63.7	63.7	51	45.2	2	4	90	0.00	30.062 
16:45	63.7	63.7	63.7	52	45.7	1	3	90	0.00	30.064 
16:50	63.5	63.5	63.5	52	45.6	1	2	90	0.00	30.064 
16:55	63.5	63.5	63.5	52	45.6	0	1	90	0.00	30.063 
17:00	63.4	63.4	63.4	52	45.5	0	2	90	0.00	30.061 
17:05	63.4	63.4	63.4	53	46.0	1	4	90	0.00	30.062 
17:10	63.2	63.2	63.2	53	45.8	0	2	90	0.00	30.061 
17:15	63.1	63.1	63.1	54	46.2	1	2	90	0.00	30.062 
17:20	62.9	62.9	62.9	54	46.0	1	2	90	0.00	30.061 
17:25	62.7	62.7	62.7	54	45.8	1	3	90	0.00	30.062 
17:30	62.6	62.6	62.6	54	45.7	1	2	90	0.00	30.061 
17:35	62.4	62.4	62.4	54	45.5	0	3	90	0.00	30.060 
17:40	62.1	62.1	62.1	55	45.7	0	2	90	0.00	30.057 
17:45	62.0	62.0	62.0	55	45.6	0	1	90	0.00	30.058 
17:50	61.8	61.8	61.8	56	45.9	0	2	90	0.00	30.059 
17:55	61.6	61.6	61.6	55	45.3	1	3	90	0.00	30.057 
18:00	61.5	61.5	61.5	56	45.7	1	3	90	0.00	30.054 
18:05	61.3	61.3	61.3	57	45.9	2	4	90	0.00	30.058 
18:10	61.2	61.2	61.2	58	46.3	1	2	90	0.00	30.058 
18:15	60.9	60.9	60.9	58	46.0	2	4	90	0.00	30.056 
18:20	60.7	60.7	60.7	59	46.3	2	4	90	0.00	30.055 
18:25	60.5	60.5	60.5	60	46.5	1	4	90	0.00	30.056 
18:30	60.2	60.2	60.2	60	46.3	2	4	90	0.00	30.053 
18:35	60.1	60.1	60.1	60	46.2	1	4	90	0.00	30.056 
18:40	59.9	59.9	59.9	61	46.4	1	3	90	0.00	30.062 
18:45	59.6	59.6	59.6	62	46.6	1	2	68	0.00	30.064 
18:50	59.3	59.3	59.3	62	46.3	1	3	68	0.00	30.066 
18:55	59.0	59.0	59.0	63	46.4	1	4	68	0.00	30.065 
19:00	58.9	58.9	58.9	63	46.3	1	3	90	0.00	30.066 
19:05	58.7	58.7	58.7	63	46.1	1	3	90	0.00	30.063 
19:10	58.6	58.6	58.6	64	46.5	1	4	90	0.00	30.065 
19:15	58.4	58.4	58.4	64	46.3	1	3	90	0.00	30.066 
19:20	58.4	58.4	58.4	64	46.3	1	3	90	0.00	30.066 
19:25	58.3	58.3	58.3	65	46.6	1	2	90	0.00	30.066 
19:30	58.1	58.1	58.1	65	46.4	1	3	90	0.00	30.067 
19:35	58.1	58.1	58.1	65	46.4	1	3	90	0.00	30.067 
19:40	57.8	57.8	57.8	65	46.1	1	3	90	0.00	30.068 
19:45	57.6	57.6	57.6	65	45.9	1	3	90	0.00	30.069 
19:50	57.5	57.5	57.5	66	46.2	1	5	90	0.00	30.068 
19:55	57.3	57.3	57.3	67	46.4	0	1	90	0.00	30.071 
20:00	57.0	57.0	57.0	68	46.5	0	2	90	0.00	30.075 
20:05	56.7	56.7	56.7	68	46.3	0	3	90	0.00	30.076 
20:10	56.6	56.6	56.6	69	46.5	1	3	90	0.00	30.077 
20:15	56.5	56.5	56.5	69	46.5	1	2	90	0.00	30.076 
20:20	56.5	56.5	56.5	68	46.1	1	2	90	0.00	30.077 
20:25	56.5	56.5	56.5	69	46.5	0	1	90	0.00	30.076 
20:30	56.5	56.5	56.5	69	46.5	0	1	90	0.00	30.072 
20:35	56.5	56.5	56.5	69	46.5	1	3	90	0.00	30.076 
20:40	56.5	56.5	56.5	69	46.5	0	2	90	0.00	30.077 
20:45	56.5	56.5	56.5	69	46.5	0	2	90	0.00	30.078 
20:50	56.3	56.3	56.3	69	46.3	0	1	90	0.00	30.079 
20:55	56.2	56.2	56.2	70	46.5	0	2	90	0.00	30.080 
21:00	56.0	56.0	56.0	70	46.4	0	2	90	0.00	30.079 
21:05	55.7	55.7	55.7	70	46.1	0	2	90	0.00	30.078 
21:10	55.6	55.6	55.6	71	46.3	0	1	90	0.00	30.079 
21:15	55.3	55.3	55.3	72	46.4	0	2	90	0.00	30.077 
21:20	55.1	55.1	55.1	72	46.2	0	2	90	0.00	30.076 
21:25	55.0	55.0	55.0	72	46.1	0	1	90	0.00	30.077 
21:30	54.8	54.8	54.8	72	45.9	1	2	90	0.00	30.078 
21:35	54.8	54.8	54.8	72	45.9	1	2	90	0.00	30.079 
21:40	54.7	54.7	54.7	72	45.9	0	2	90	0.00	30.079 
21:45	54.7	54.7	54.7	72	45.9	1	2	90	0.00	30.078 
21:50	54.5	54.5	54.5	73	46.0	1	3	90	0.00	30.079 
21:55	54.4	54.4	54.4	73	45.9	1	2	90	0.00	30.079 
22:00	54.4	54.4	54.4	73	45.9	1	3	90	0.00	30.077 
22:05	54.2	54.2	54.2	73	45.7	1	3	90	0.00	30.074 
22:10	54.1	54.1	54.1	73	45.6	1	3	90	0.00	30.074 
22:15	54.1	54.1	54.1	73	45.6	1	2	90	0.00	30.072 
22:20	53.9	53.9	53.9	73	45.4	1	3	90	0.00	30.073 
22:25	53.8	53.8	53.8	73	45.3	1	4	90	0.00	30.071 
22:30	53.8	53.8	53.8	73	45.3	0	2	90	0.00	30.070 
22:35	53.6	53.6	53.6	74	45.5	0	2	90	0.00	30.070 
22:40	53.5	53.5	53.5	74	45.4	1	2	90	0.00	30.070 
22:45	53.5	53.5	53.5	74	45.4	0	3	90	0.00	30.066 
22:50	53.3	53.3	53.3	74	45.2	0	2	90	0.00	30.068 
22:55	53.2	53.2	53.2	75	45.5	0	2	90	0.00	30.068 
23:00	53.1	53.1	53.1	75	45.4	1	2	90	0.00	30.066 
23:05	52.9	52.9	52.9	75	45.2	1	3	90	0.00	30.062 
23:10	52.9	52.9	52.9	75	45.2	1	2	90	0.00	30.062 
23:15	52.8	52.8	52.8	75	45.1	1	3	90	0.00	30.061 
23:20	52.6	52.6	52.6	76	45.3	0	2	90	0.00	30.061 
23:25	52.3	52.3	52.3	77	45.3	0	2	90	0.00	30.061 
23:30	52.2	52.2	52.2	77	45.2	0	1	90	0.00	30.060 
23:35	51.9	51.9	51.9	78	45.3	0	2	90	0.00	30.060 
23:40	51.9	51.9	51.9	78	45.3	0	2	90	0.00	30.061 
23:45	51.7	51.7	51.7	78	45.1	0	1	90	0.00	30.061 
23:50	51.6	51.6	51.6	79	45.3	0	1	90	0.00	30.062 
23:55	51.4	51.4	51.4	79	45.1	0	1	90	0.00	30.064 

CoCoRaHS
IN-AL-39
A2 Web Hosting
Creative Commons License
GoDaddy
Look for:

loaded 2017-12-13 09:49:29 • last modified 2010-11-18 10:43:29
Privacy PolicyDisclaimer
• wx.awcolley.com is powered by PmWiki v.2002016 •
• all content (unless otherwise noted) © 2017 A W Colley